地図

経路データ

SID SEASON NUMBER BASIN SUBBASIN NAME ISO_TIME NATURE LAT LON WMO_WIND WMO_PRES WMO_AGENCY TRACK_TYPE DIST2LAND LANDFALL IFLAG USA_AGENCY USA_ATCF_ID USA_LAT USA_LON USA_RECORD USA_STATUS USA_WIND USA_PRES USA_SSHS USA_R34_NE USA_R34_SE USA_R34_SW USA_R34_NW USA_R50_NE USA_R50_SE USA_R50_SW USA_R50_NW USA_R64_NE USA_R64_SE USA_R64_SW USA_R64_NW USA_POCI USA_ROCI USA_RMW USA_EYE TOKYO_LAT TOKYO_LON TOKYO_GRADE TOKYO_WIND TOKYO_PRES TOKYO_R50_DIR TOKYO_R50_LONG TOKYO_R50_SHORT TOKYO_R30_DIR TOKYO_R30_LONG TOKYO_R30_SHORT TOKYO_LAND CMA_LAT CMA_LON CMA_CAT CMA_WIND CMA_PRES HKO_LAT HKO_LON HKO_CAT HKO_WIND HKO_PRES NEWDELHI_LAT NEWDELHI_LON NEWDELHI_GRADE NEWDELHI_WIND NEWDELHI_PRES NEWDELHI_CI NEWDELHI_DP NEWDELHI_POCI REUNION_LAT REUNION_LON REUNION_TYPE REUNION_WIND REUNION_PRES REUNION_TNUM REUNION_CI REUNION_RMW REUNION_R34_NE REUNION_R34_SE REUNION_R34_SW REUNION_R34_NW REUNION_R50_NE REUNION_R50_SE REUNION_R50_SW REUNION_R50_NW REUNION_R64_NE REUNION_R64_SE REUNION_R64_SW REUNION_R64_NW BOM_LAT BOM_LON BOM_TYPE BOM_WIND BOM_PRES BOM_TNUM BOM_CI BOM_RMW BOM_R34_NE BOM_R34_SE BOM_R34_SW BOM_R34_NW BOM_R50_NE BOM_R50_SE BOM_R50_SW BOM_R50_NW BOM_R64_NE BOM_R64_SE BOM_R64_SW BOM_R64_NW BOM_ROCI BOM_POCI BOM_EYE BOM_POS_METHOD BOM_PRES_METHOD NADI_LAT NADI_LON NADI_CAT NADI_WIND NADI_PRES WELLINGTON_LAT WELLINGTON_LON WELLINGTON_WIND WELLINGTON_PRES DS824_LAT DS824_LON DS824_STAGE DS824_WIND DS824_PRES TD9636_LAT TD9636_LON TD9636_STAGE TD9636_WIND TD9636_PRES TD9635_LAT TD9635_LON TD9635_WIND TD9635_PRES TD9635_ROCI NEUMANN_LAT NEUMANN_LON NEUMANN_CLASS NEUMANN_WIND NEUMANN_PRES MLC_LAT MLC_LON MLC_CLASS MLC_WIND MLC_PRES USA_GUST BOM_GUST BOM_GUST_PER REUNION_GUST REUNION_GUST_PER USA_SEAHGT USA_SEARAD_NE USA_SEARAD_SE USA_SEARAD_SW USA_SEARAD_NW STORM_SPEED STORM_DIR
1869270N18308 1869 20 NA NA NOT_NAMED 1869-09-26 12:00:00 TS 17.9000 -51.7000 main 1285 1250 _____________O -1 17.9000 -51.7000 TS 45 12 289
1869270N18308 1869 20 NA NA NOT_NAMED 1869-09-26 15:00:00 TS 18.1004 -52.2997 main 1250 1217 _____________P -1 18.1004 -52.2997 TS 45 12 289
1869270N18308 1869 20 NA NA NOT_NAMED 1869-09-26 18:00:00 TS 18.3000 -52.9000 main 1217 1188 _____________O -1 18.3000 -52.9000 TS 45 12 289
1869270N18308 1869 20 NA NA NOT_NAMED 1869-09-26 21:00:00 TS 18.4998 -53.5001 main 1188 1162 _____________P -1 18.4998 -53.5001 TS 47 12 289
1869270N18308 1869 20 NA NA NOT_NAMED 1869-09-27 00:00:00 TS 18.7000 -54.1000 main 1162 1140 _____________O -1 18.7000 -54.1000 TS 50 12 290
1869270N18308 1869 20 NA NA NOT_NAMED 1869-09-27 03:00:00 TS 18.9074 -54.7075 main 1140 1087 _____________P -1 18.9074 -54.7075 TS 50 12 289
1869270N18308 1869 20 NA NA NOT_NAMED 1869-09-27 06:00:00 TS 19.1000 -55.3000 main 1087 1035 _____________O -1 19.1000 -55.3000 TS 50 11 288
1869270N18308 1869 20 NA NA NOT_NAMED 1869-09-27 09:00:00 TS 19.2572 -55.8502 main 1025 974 _____________P -1 19.2572 -55.8502 TS 50 11 286
1869270N18308 1869 20 NA NA NOT_NAMED 1869-09-27 12:00:00 TS 19.4000 -56.4000 main 974 912 _____________O -1 19.4000 -56.4000 TS 50 11 285
1869270N18308 1869 20 NA NA NOT_NAMED 1869-09-27 15:00:00 TS 19.5499 -57.0001 main 912 853 _____________P -1 19.5499 -57.0001 TS 50 12 285
1869270N18308 1869 20 NA NA NOT_NAMED 1869-09-27 18:00:00 TS 19.7000 -57.6000 main 853 803 _____________O -1 19.7000 -57.6000 TS 50 11 285
1869270N18308 1869 20 NA NA NOT_NAMED 1869-09-27 21:00:00 TS 19.8497 -58.1501 main 793 746 _____________P -1 19.8497 -58.1501 TS 50 11 286
1869270N18308 1869 20 NA NA NOT_NAMED 1869-09-28 00:00:00 TS 20.0000 -58.7000 main 746 688 _____________O -1 20.0000 -58.7000 TS 50 11 286
1869270N18308 1869 20 NA NA NOT_NAMED 1869-09-28 03:00:00 TS 20.1574 -59.3000 main 691 634 _____________P -1 20.1574 -59.3000 TS 50 12 285
1869270N18308 1869 20 NA NA NOT_NAMED 1869-09-28 06:00:00 TS 20.3000 -59.9000 main 634 589 _____________O -1 20.3000 -59.9000 TS 50 11 283
1869270N18308 1869 20 NA NA NOT_NAMED 1869-09-28 09:00:00 TS 20.3997 -60.4503 main 579 536 _____________P -1 20.3997 -60.4503 TS 50 11 281
1869270N18308 1869 20 NA NA NOT_NAMED 1869-09-28 12:00:00 TS 20.5000 -61.0000 main 536 486 _____________O -1 20.5000 -61.0000 TS 50 11 283
1869270N18308 1869 20 NA NA NOT_NAMED 1869-09-28 15:00:00 TS 20.6499 -61.5999 main 486 445 _____________P -1 20.6499 -61.5999 TS 50 12 285
1869270N18308 1869 20 NA NA NOT_NAMED 1869-09-28 18:00:00 TS 20.8000 -62.2000 main 445 412 _____________O -1 20.8000 -62.2000 TS 50 11 283
1869270N18308 1869 20 NA NA NOT_NAMED 1869-09-28 21:00:00 TS 20.8997 -62.7578 main 405 377 _____________P -1 20.8997 -62.7578 TS 50 10 281
1869270N18308 1869 20 NA NA NOT_NAMED 1869-09-29 00:00:00 TS 21.0000 -63.3000 main 377 355 _____________O -1 21.0000 -63.3000 TS 50 11 284
1869270N18308 1869 20 NA NA NOT_NAMED 1869-09-29 03:00:00 TS 21.1498 -63.8499 main 355 345 _____________P -1 21.1498 -63.8499 TS 52 11 286
1869270N18308 1869 20 NA NA NOT_NAMED 1869-09-29 06:00:00 TS 21.3000 -64.4000 main 347 337 _____________O -1 21.3000 -64.4000 TS 55 10 283
1869270N18308 1869 20 NA NA NOT_NAMED 1869-09-29 09:00:00 TS 21.3922 -64.9429 main 343 338 _____________P -1 21.3922 -64.9429 TS 55 10 281
1869270N18308 1869 20 NA NA NOT_NAMED 1869-09-29 12:00:00 TS 21.5000 -65.5000 main 346 346 _____________O -1 21.5000 -65.5000 TS 55 11 286
1869270N18308 1869 20 NA NA NOT_NAMED 1869-09-29 15:00:00 TS 21.6924 -66.0998 main 369 369 _____________P -1 21.6924 -66.0998 TS 55 12 290
1869270N18308 1869 20 NA NA NOT_NAMED 1869-09-29 18:00:00 TS 21.9000 -66.7000 main 391 372 _____________O -1 21.9000 -66.7000 TS 55 11 289
1869270N18308 1869 20 NA NA NOT_NAMED 1869-09-29 21:00:00 TS 22.0572 -67.2577 main 375 359 _____________P -1 22.0572 -67.2577 TS 55 11 286
1869270N18308 1869 20 NA NA NOT_NAMED 1869-09-30 00:00:00 TS 22.2000 -67.8000 main 359 349 _____________O -1 22.2000 -67.8000 TS 55 11 286
1869270N18308 1869 20 NA NA NOT_NAMED 1869-09-30 03:00:00 TS 22.3498 -68.3501 main 344 340 _____________P -1 22.3498 -68.3501 TS 55 11 286
1869270N18308 1869 20 NA NA NOT_NAMED 1869-09-30 06:00:00 TS 22.5000 -68.9000 main 343 336 _____________O -1 22.5000 -68.9000 TS 55 11 287
1869270N18308 1869 20 NA NA NOT_NAMED 1869-09-30 09:00:00 TS 22.6497 -69.4426 main 336 334 _____________P -1 22.6497 -69.4426 TS 55 11 286
1869270N18308 1869 20 NA NA NOT_NAMED 1869-09-30 12:00:00 TS 22.8000 -70.0000 main 341 311 _____________O -1 22.8000 -70.0000 TS 55 11 286
1869270N18308 1869 20 NA NA NOT_NAMED 1869-09-30 15:00:00 TS 22.9499 -70.6001 main 311 281 _____________P -1 22.9499 -70.6001 TS 55 11 285
1869270N18308 1869 20 NA NA NOT_NAMED 1869-09-30 18:00:00 TS 23.1000 -71.2000 main 281 260 _____________O -1 23.1000 -71.2000 TS 55 11 286
1869270N18308 1869 20 NA NA NOT_NAMED 1869-09-30 21:00:00 TS 23.2497 -71.7576 main 255 252 _____________P -1 23.2497 -71.7576 TS 55 11 287
1869270N18308 1869 20 NA NA NOT_NAMED 1869-10-01 00:00:00 TS 23.4000 -72.3000 main 256 251 _____________O -1 23.4000 -72.3000 TS 55 10 287
1869270N18308 1869 20 NA NA NOT_NAMED 1869-10-01 03:00:00 TS 23.5498 -72.8501 main 257 257 _____________P -1 23.5498 -72.8501 TS 55 11 287
1869270N18308 1869 20 NA NA NOT_NAMED 1869-10-01 06:00:00 TS 23.7000 -73.4000 main 280 280 _____________O -1 23.7000 -73.4000 TS 55 11 287
1869270N18308 1869 20 NA NA NOT_NAMED 1869-10-01 09:00:00 TS 23.8575 -73.9650 main 312 312 _____________P -1 23.8575 -73.9650 TS 55 11 287
1869270N18308 1869 20 NA NA NOT_NAMED 1869-10-01 12:00:00 TS 24.0000 -74.5000 main 329 287 _____________O -1 24.0000 -74.5000 TS 55 9 286
1869270N18308 1869 20 NA NA NOT_NAMED 1869-10-01 15:00:00 TS 24.1147 -74.9651 main 277 235 _____________P -1 24.1147 -74.9651 TS 55 8 284
1869270N18308 1869 20 NA NA NOT_NAMED 1869-10-01 18:00:00 TS 24.2000 -75.4000 main 235 195 _____________O -1 24.2000 -75.4000 TS 55 8 280
1869270N18308 1869 20 NA NA NOT_NAMED 1869-10-01 21:00:00 TS 24.2499 -75.8502 main 185 143 _____________P -1 24.2499 -75.8502 TS 57 8 277
1869270N18308 1869 20 NA NA NOT_NAMED 1869-10-02 00:00:00 TS 24.3000 -76.3000 main 143 101 _____________O -1 24.3000 -76.3000 TS 60 8 280
1869270N18308 1869 20 NA NA NOT_NAMED 1869-10-02 03:00:00 TS 24.3999 -76.7574 main 91 50 _____________P -1 24.3999 -76.7574 TS 60 8 284
1869270N18308 1869 20 NA NA NOT_NAMED 1869-10-02 06:00:00 TS 24.5000 -77.2000 main 50 10 _____________O -1 24.5000 -77.2000 TS 60 8 277
1869270N18308 1869 20 NA NA NOT_NAMED 1869-10-02 09:00:00 TS 24.4976 -77.6528 main 0 0 _____________P -1 24.4976 -77.6528 TS 60 7 278
1869270N18308 1869 20 NA NA NOT_NAMED 1869-10-02 12:00:00 TS 24.6000 -78.0000 main 0 0 _____________O -1 24.6000 -78.0000 TS 60 7 314
1869270N18308 1869 20 NA NA NOT_NAMED 1869-10-02 15:00:00 TS 24.9598 -78.1821 main 10 10 _____________P -1 24.9598 -78.1821 TS 60 9 349
1869270N18308 1869 20 NA NA NOT_NAMED 1869-10-02 18:00:00 TS 25.5000 -78.2000 main 45 45 _____________O -1 25.5000 -78.2000 TS 60 12 4
1869270N18308 1869 20 NA NA NOT_NAMED 1869-10-02 21:00:00 TS 26.1275 -78.0879 main 111 111 _____________P -1 26.1275 -78.0879 TS 62 13 12
1869270N18308 1869 20 NA NA NOT_NAMED 1869-10-03 00:00:00 TS 26.8000 -77.9000 main 190 190 _____________O -1 26.8000 -77.9000 HU 65 13 12
1869270N18308 1869 20 NA NA NOT_NAMED 1869-10-03 03:00:00 TS 27.3997 -77.7940 main 227 227 _____________P -1 27.3997 -77.7940 HU 70 12 12
1869270N18308 1869 20 NA NA NOT_NAMED 1869-10-03 06:00:00 TS 28.0000 -77.6000 main 270 270 _____________O -1 28.0000 -77.6000 HU 75 982 14 23
1869270N18308 1869 20 NA NA NOT_NAMED 1869-10-03 09:00:00 TS 28.6428 -77.1879 main 322 322 _____________P -1 28.6428 -77.1879 HU 75 15 31
1869270N18308 1869 20 NA NA NOT_NAMED 1869-10-03 12:00:00 TS 29.3000 -76.7000 main 380 380 _____________O -1 29.3000 -76.7000 HU 75 15 31
1869270N18308 1869 20 NA NA NOT_NAMED 1869-10-03 15:00:00 TS 29.9424 -76.2844 main 436 417 _____________P -1 29.9424 -76.2844 HU 75 15 28
1869270N18308 1869 20 NA NA NOT_NAMED 1869-10-03 18:00:00 TS 30.6000 -75.9000 main 417 375 _____________O -1 30.6000 -75.9000 HU 75 14 25
1869270N18308 1869 20 NA NA NOT_NAMED 1869-10-03 21:00:00 TS 31.2094 -75.5915 main 375 341 _____________P -1 31.2094 -75.5915 HU 77 13 23
1869270N18308 1869 20 NA NA NOT_NAMED 1869-10-04 00:00:00 TS 31.8333 -75.3000 90 hurdat_atl main 341 270 O____________O hurdat_atl AL101869 31.5000 -75.5000 HU 90 2 32.0000 -75.2000 HU 80 21 30
1869270N18308 1869 20 NA NA NOT_NAMED 1869-10-04 03:00:00 TS 33.0549 -74.3600 main 263 246 P____________P AL101869 32.9791 -74.1744 HU 90 2 33.1307 -74.5457 HU 82 31 32
1869270N18308 1869 20 NA NA NOT_NAMED 1869-10-04 06:00:00 TS 34.5000 -73.3200 90 hurdat_atl main 246 236 O____________O hurdat_atl AL101869 34.5000 -73.0000 HU 90 2 34.5000 -73.8000 HU 85 34 28
1869270N18308 1869 20 NA NA NOT_NAMED 1869-10-04 09:00:00 TS 36.0530 -72.4575 main 271 271 P____________P AL101869 36.0983 -72.1266 HU 90 2 35.9624 -73.1194 HU 85 34 21
1869270N18308 1869 20 NA NA NOT_NAMED 1869-10-04 12:00:00 TS 37.6333 -71.8333 90 hurdat_atl main 298 224 O____________O hurdat_atl AL101869 37.7000 -71.5000 HU 90 2 37.5000 -72.5000 HU 85 31 16
1869270N18308 1869 20 NA NA NOT_NAMED 1869-10-04 15:00:00 TS 39.0480 -71.3610 main 224 111 P____________P AL101869 39.1304 -70.9707 HU 90 2 38.8833 -72.1416 HU 85 31 14
1869270N18308 1869 20 NA NA NOT_NAMED 1869-10-04 18:00:00 TS 40.6333 -70.9000 90 hurdat_atl main 100 33 O____________O hurdat_atl AL101869 40.7000 -70.6000 HU 90 2 40.5000 -71.5000 HU 85 34 13
1869270N18308 1869 20 NA NA NOT_NAMED 1869-10-04 19:00:00 TS 41.2688 -70.6861 90 hurdat_atl main 22 0 O____________P hurdat_atl AL101869 41.3000 -70.5000 L HU 90 2 41.2063 -71.0583 HU 83 36 17
1869270N18308 1869 20 NA NA NOT_NAMED 1869-10-04 20:00:00 TS 41.7893 -70.4416 90 hurdat_atl main 8 8 O____________P hurdat_atl AL101869 41.7000 -70.4000 L HU 90 2 41.9678 -70.5249 HU 81 38 17
1869270N18308 1869 20 NA NA NOT_NAMED 1869-10-04 21:00:00 TS 42.4864 -70.1751 main 34 0 P____________P AL101869 42.3517 -70.3005 HU 90 2 42.7559 -69.9245 HU 80 44 16
1869270N18308 1869 20 NA NA NOT_NAMED 1869-10-04 23:00:00 TS 43.8998 -69.6105 90 hurdat_atl main 0 0 O____________P hurdat_atl AL101869 43.7000 -70.1000 L HU 90 2 44.2993 -68.6316 HU 76 39 18
1869270N18308 1869 20 NA NA NOT_NAMED 1869-10-05 00:00:00 MX 44.3333 -69.3333 80 hurdat_atl main 0 0 O____________O hurdat_atl AL101869 44.0000 -70.0000 HU 80 1 45.0000 -68.0000 EX 75 30 24
1869270N18308 1869 20 NA NA NOT_NAMED 1869-10-05 03:00:00 MX 45.7538 -68.4498 main 0 0 P____________P AL101869 45.2138 -69.4622 HU 70 1 46.8338 -66.4248 EX 62 30 28
1869270N18308 1869 20 NA NA NOT_NAMED 1869-10-05 06:00:00 MX 47.0000 -67.3333 60 hurdat_atl main 0 0 O____________O hurdat_atl AL101869 46.5000 -68.5000 TS 60 0 48.0000 -65.0000 EX 50 26 41
1869270N18308 1869 20 NA NA NOT_NAMED 1869-10-05 09:00:00 MX 47.6833 -65.9815 main 0 0 P____________P AL101869 47.3922 -67.1210 TS 55 0 48.2654 -63.7024 EX 50 22 62
1869270N18308 1869 20 NA NA NOT_NAMED 1869-10-05 12:00:00 MX 48.0000 -64.5000 50 hurdat_atl main 31 O____________O hurdat_atl AL101869 48.0000 -65.5000 TS 50 0 48.0000 -62.5000 EX 50 21 72

IBTrACS Databaseについて

本データベースは、米国NOAAが公開する1842年以降の世界の熱帯低気圧のベストトラックデータアーカイブInternational Best Track Archive for Climate Stewardship (IBTrACS)を、ウェブで閲覧しやすい形式に変換したものです。

最終更新日:2021-11-26